Bat Cave, North Carolina
Current Conditions -  °F | °C
As of 8:54 PM on Thursday 20 Nov 2014 (Local Time) from KAVL Reporting Station
Clear Clear  
Wind Chill: 33°   Ceiling: Unl
Heat Index: 33°   Visibility: 10mi
Dew Point: 23°   Wind: 3mph
Humidity: 66%   Direction: 340°NNW
Pressure: 30.14"   Gusts: NA
Location:  35.45°N, 82.29°W
Report Text: KAVL 210154Z 34003KT 10SM CLR 01/M05 A3014 RMK AO2 SLP216 T00061050
Loading
Personal Weather Stations






























Interactive Weather Map New forecast layout! Learn more

10-Day Weather Forecast

Advertisements
Track Severe Weather on mobile